Time;durP1;ratioP1;P1;durP2;ratioP2;P2;SDS_P1;SDS_P2;PMS_P1;PMS_P2;Temp;Humidity;BMP_temperature;BMP_pressure;BME280_temperature;BME280_humidity;BME280_pressure;Samples;Min_cycle;Max_cycle;Signal;HPM_P1;HPM_P2
2023/03/17 00:00:14;;;;;;;9.73;4.50;;;6.20;99.90;;;;;;5051637;28;20056;-88
2023/03/17 00:02:41;;;;;;;6.60;4.20;;;6.20;99.90;;;;;;5048895;28;20467;-89
2023/03/17 00:05:16;;;;;;;6.95;3.92;;;6.30;99.90;;;;;;5049071;28;20017;-89
2023/03/17 00:07:44;;;;;;;13.73;5.00;;;6.30;99.90;;;;;;5056516;28;20033;-89
2023/03/17 00:10:14;;;;;;;10.10;4.88;;;6.30;99.90;;;;;;5049703;28;20021;-90
2023/03/17 00:12:40;;;;;;;18.17;5.78;;;6.40;99.90;;;;;;5059854;28;20025;-85
2023/03/17 00:15:06;;;;;;;6.00;4.22;;;6.40;99.90;;;;;;5053047;28;20021;-91
2023/03/17 00:17:32;;;;;;;9.98;5.40;;;6.40;99.90;;;;;;5048689;28;20032;-89
2023/03/17 00:19:58;;;;;;;10.23;4.82;;;6.40;99.90;;;;;;5052117;28;20020;-87
2023/03/17 00:22:24;;;;;;;9.93;5.03;;;6.40;99.90;;;;;;5050372;28;20029;-88
2023/03/17 00:24:50;;;;;;;14.18;5.18;;;6.40;99.90;;;;;;5048876;28;20032;-91
2023/03/17 00:27:16;;;;;;;10.75;5.50;;;6.40;99.90;;;;;;5051832;28;20044;-90
2023/03/17 00:29:42;;;;;;;7.95;5.13;;;6.50;99.90;;;;;;5052507;28;20456;-92
2023/03/17 00:32:15;;;;;;;11.38;5.20;;;6.50;99.90;;;;;;5053596;28;20037;-92
2023/03/17 00:34:41;;;;;;;8.45;4.88;;;6.50;99.90;;;;;;5056377;28;20151;-92
2023/03/17 00:37:11;;;;;;;9.60;5.05;;;6.50;99.90;;;;;;5055300;28;20505;-91
2023/03/17 00:39:37;;;;;;;9.70;5.10;;;6.50;99.90;;;;;;5052213;28;20020;-92
2023/03/17 00:42:05;;;;;;;6.65;4.72;;;6.50;99.90;;;;;;5055003;28;20046;-91
2023/03/17 00:44:33;;;;;;;12.30;5.25;;;6.50;99.90;;;;;;5055380;28;20447;-91
2023/03/17 00:46:59;;;;;;;6.55;4.78;;;6.50;99.90;;;;;;5053817;28;20056;-88
2023/03/17 00:49:25;;;;;;;9.25;4.70;;;6.60;99.90;;;;;;5058818;28;20017;-91
2023/03/17 00:51:51;;;;;;;12.05;5.45;;;6.60;99.90;;;;;;5049102;28;20115;-90
2023/03/17 00:54:18;;;;;;;8.80;5.60;;;6.70;99.90;;;;;;5044352;28;20067;-92
2023/03/17 00:56:45;;;;;;;9.93;5.88;;;6.70;99.90;;;;;;5051313;28;20063;-81
2023/03/17 00:59:23;;;;;;;9.27;5.20;;;6.80;99.90;;;;;;5051956;28;20029;-89
2023/03/17 01:01:49;;;;;;;11.82;5.80;;;7.00;99.90;;;;;;5054883;28;21718;-90
2023/03/17 01:04:15;;;;;;;10.07;5.30;;;7.00;99.90;;;;;;5047942;28;20036;-92
2023/03/17 01:06:42;;;;;;;9.77;6.35;;;7.00;99.90;;;;;;5055054;28;20041;-88
2023/03/17 01:09:11;;;;;;;8.02;5.50;;;7.00;99.90;;;;;;5055304;28;20060;-86
2023/03/17 01:11:37;;;;;;;12.75;5.47;;;7.00;99.90;;;;;;5057222;28;20039;-89
2023/03/17 01:14:03;;;;;;;9.15;5.35;;;7.00;99.90;;;;;;5054224;28;20458;-91
2023/03/17 01:16:29;;;;;;;10.57;5.85;;;7.00;99.90;;;;;;5050698;28;20111;-88
2023/03/17 01:18:54;;;;;;;8.90;5.32;;;7.00;99.90;;;;;;5054951;28;20116;-91
2023/03/17 01:21:20;;;;;;;9.05;5.38;;;6.90;99.90;;;;;;5054845;28;20075;-91
2023/03/17 01:23:46;;;;;;;12.77;5.68;;;6.90;99.90;;;;;;5052621;28;20024;-90
2023/03/17 01:26:11;;;;;;;10.30;6.00;;;6.80;99.90;;;;;;5047910;28;20041;-90
2023/03/17 01:28:38;;;;;;;7.82;5.05;;;6.90;99.90;;;;;;5055882;28;20100;-92
2023/03/17 01:31:03;;;;;;;12.50;5.38;;;6.80;99.90;;;;;;5048317;28;20025;-81
2023/03/17 01:33:29;;;;;;;9.30;5.90;;;6.80;99.90;;;;;;5048171;28;20390;-90
2023/03/17 01:35:55;;;;;;;9.80;5.20;;;6.90;99.90;;;;;;5051907;28;20028;-92
2023/03/17 01:38:21;;;;;;;9.10;5.00;;;6.80;99.90;;;;;;5055403;28;20500;-91
2023/03/17 01:40:49;;;;;;;11.18;5.82;;;6.80;99.90;;;;;;5058614;28;20063;-92
2023/03/17 01:43:29;;;;;;;12.40;7.30;;;6.80;99.90;;;;;;5056200;28;20021;-91
2023/03/17 01:46:16;;;;;;;12.68;5.90;;;6.70;99.90;;;;;;5049433;28;20045;-90
2023/03/17 01:49:04;;;;;;;10.07;6.03;;;6.80;99.90;;;;;;5052958;28;20025;-91
2023/03/17 01:51:51;;;;;;;10.38;6.00;;;6.90;99.90;;;;;;5053672;28;20108;-90
2023/03/17 01:54:38;;;;;;;12.90;5.68;;;7.00;99.90;;;;;;5060292;28;20032;-81
2023/03/17 01:57:30;;;;;;;11.10;6.35;;;7.00;99.90;;;;;;5047587;28;20048;-88
2023/03/17 02:00:17;;;;;;;11.40;5.20;;;7.10;99.90;;;;;;5034351;28;20132;-86
2023/03/17 02:02:46;;;;;;;11.25;5.90;;;7.00;99.90;;;;;;5052380;28;20041;-81
2023/03/17 02:05:16;;;;;;;10.48;5.55;;;7.00;99.90;;;;;;5049644;28;20469;-85
2023/03/17 02:07:43;;;;;;;13.13;5.97;;;7.00;99.90;;;;;;5055488;28;20044;-88
2023/03/17 02:10:11;;;;;;;9.80;5.63;;;7.00;99.90;;;;;;5048263;28;20032;-83
2023/03/17 02:12:39;;;;;;;13.23;6.53;;;7.00;99.90;;;;;;5054806;28;20458;-87
2023/03/17 02:15:06;;;;;;;8.57;5.78;;;7.00;99.90;;;;;;5052765;28;20024;-88
2023/03/17 02:17:33;;;;;;;10.07;5.70;;;7.00;99.90;;;;;;5057413;28;20029;-84
2023/03/17 02:20:17;;;;;;;13.30;6.70;;;7.00;99.90;;;;;;5056145;28;20024;-87
2023/03/17 02:22:53;;;;;;;13.73;5.90;;;7.00;99.90;;;;;;5048783;28;20051;-82
2023/03/17 02:25:20;;;;;;;9.88;5.97;;;6.90;99.90;;;;;;5049756;28;20016;-82
2023/03/17 02:27:50;;;;;;;10.57;5.50;;;7.00;99.90;;;;;;5050752;28;20032;-80
2023/03/17 02:30:19;;;;;;;10.60;6.32;;;7.00;99.90;;;;;;5047088;28;20162;-80
2023/03/17 02:32:45;;;;;;;10.18;5.30;;;7.00;99.90;;;;;;5054255;28;20048;-87
2023/03/17 02:35:10;;;;;;;9.52;5.53;;;7.00;99.90;;;;;;5046975;28;20094;-88
2023/03/17 02:37:37;;;;;;;9.48;5.45;;;7.00;99.90;;;;;;5055042;28;20118;-86
2023/03/17 02:40:05;;;;;;;12.73;5.93;;;7.00;99.90;;;;;;5056696;28;20444;-85
2023/03/17 02:42:31;;;;;;;9.27;5.45;;;7.00;99.90;;;;;;5055703;28;20021;-83
2023/03/17 02:44:57;;;;;;;14.40;6.50;;;7.00;99.90;;;;;;5057168;28;20028;-82
2023/03/17 02:47:22;;;;;;;10.45;5.40;;;7.00;99.90;;;;;;5047387;28;20041;-85
2023/03/17 02:49:48;;;;;;;12.25;6.47;;;7.00;99.90;;;;;;5050043;28;20052;-86
2023/03/17 02:52:15;;;;;;;10.90;5.43;;;6.90;99.90;;;;;;5056004;28;20032;-88
2023/03/17 02:54:41;;;;;;;11.57;5.95;;;7.00;99.90;;;;;;5045237;28;20493;-86
2023/03/17 02:57:07;;;;;;;10.88;5.95;;;6.90;99.90;;;;;;5059085;28;20084;-91
2023/03/17 02:59:33;;;;;;;8.27;5.20;;;6.90;99.90;;;;;;5045936;28;20024;-81
2023/03/17 03:01:59;;;;;;;11.52;5.78;;;6.90;99.90;;;;;;5052831;28;20426;-85
2023/03/17 03:04:26;;;;;;;11.52;5.97;;;6.80;99.90;;;;;;5054589;28;20055;-89
2023/03/17 03:06:52;;;;;;;10.77;5.78;;;6.80;99.90;;;;;;5051465;28;20041;-89
2023/03/17 03:09:19;;;;;;;10.00;5.70;;;6.80;99.90;;;;;;5052711;28;20024;-83
2023/03/17 03:11:45;;;;;;;11.30;5.55;;;6.80;99.90;;;;;;5057014;28;20417;-80
2023/03/17 03:14:11;;;;;;;9.23;5.00;;;6.70;99.90;;;;;;5046566;28;20028;-86
2023/03/17 03:16:37;;;;;;;7.60;5.00;;;6.70;99.90;;;;;;5052364;28;20025;-90
2023/03/17 03:19:04;;;;;;;12.07;5.70;;;6.70;99.90;;;;;;5050203;28;20032;-90
2023/03/17 03:21:31;;;;;;;13.32;6.55;;;6.70;99.90;;;;;;5046636;28;20036;-88
2023/03/17 03:23:56;;;;;;;9.93;5.13;;;6.70;99.90;;;;;;5046555;28;20024;-87
2023/03/17 03:26:22;;;;;;;9.90;5.50;;;6.80;99.90;;;;;;5052401;28;20041;-79
2023/03/17 03:28:48;;;;;;;10.32;5.68;;;6.80;99.90;;;;;;5050717;28;20484;-88
2023/03/17 03:31:14;;;;;;;15.65;6.05;;;6.80;99.90;;;;;;5047173;28;20117;-81
2023/03/17 03:33:41;;;;;;;12.75;5.55;;;6.80;99.90;;;;;;5045731;28;20419;-84
2023/03/17 03:36:07;;;;;;;13.52;6.28;;;6.80;99.90;;;;;;5056469;28;20473;-87
2023/03/17 03:38:34;;;;;;;11.57;6.07;;;6.90;99.90;;;;;;5047058;28;20036;-81
2023/03/17 03:41:00;;;;;;;10.77;5.93;;;6.80;99.90;;;;;;5051699;28;20020;-87
2023/03/17 03:43:26;;;;;;;13.75;5.65;;;6.80;99.90;;;;;;5053406;28;20020;-85
2023/03/17 03:45:54;;;;;;;10.30;5.80;;;6.80;99.90;;;;;;5048806;28;20041;-85
2023/03/17 03:48:20;;;;;;;21.27;6.75;;;6.80;99.90;;;;;;5054831;28;20017;-85
2023/03/17 03:50:46;;;;;;;9.68;5.28;;;6.90;99.90;;;;;;5057709;28;20045;-86
2023/03/17 03:53:12;;;;;;;11.27;5.32;;;6.90;99.90;;;;;;5049294;28;20091;-89
2023/03/17 03:55:39;;;;;;;12.63;6.05;;;6.90;99.90;;;;;;5052205;28;20025;-88
2023/03/17 03:58:05;;;;;;;12.98;6.40;;;6.90;99.90;;;;;;5046450;28;20025;-85
2023/03/17 04:00:31;;;;;;;13.77;6.50;;;6.90;99.90;;;;;;5053083;28;20039;-89
2023/03/17 04:02:57;;;;;;;11.48;6.10;;;6.90;99.90;;;;;;5052226;28;20037;-88
2023/03/17 04:05:22;;;;;;;8.88;5.45;;;7.00;99.90;;;;;;5047524;28;20031;-89
2023/03/17 04:07:48;;;;;;;13.30;6.00;;;7.00;99.90;;;;;;5052467;28;20389;-88
2023/03/17 04:10:16;;;;;;;12.20;6.07;;;7.00;99.90;;;;;;5050958;28;20024;-87
2023/03/17 04:12:42;;;;;;;14.40;6.18;;;7.10;99.90;;;;;;5049578;28;20033;-86
2023/03/17 04:15:10;;;;;;;10.75;5.85;;;7.10;99.90;;;;;;5051303;28;20052;-89
2023/03/17 04:17:36;;;;;;;8.70;5.20;;;7.20;99.90;;;;;;5052929;28;20111;-86
2023/03/17 04:20:02;;;;;;;8.73;5.03;;;7.20;99.90;;;;;;5046617;28;20025;-87
2023/03/17 04:22:27;;;;;;;8.30;5.32;;;7.20;99.90;;;;;;5051808;28;20031;-90
2023/03/17 04:24:53;;;;;;;11.90;5.78;;;7.20;99.90;;;;;;5049416;28;20024;-88
2023/03/17 04:27:18;;;;;;;14.88;5.82;;;7.10;99.90;;;;;;5049843;28;20049;-89
2023/03/17 04:29:44;;;;;;;10.40;5.55;;;7.10;99.90;;;;;;5057712;28;20108;-89
2023/03/17 04:32:13;;;;;;;12.43;6.07;;;7.00;99.90;;;;;;5052291;28;20037;-90
2023/03/17 04:34:42;;;;;;;11.43;5.80;;;7.00;99.90;;;;;;5051012;28;20460;-90
2023/03/17 04:37:09;;;;;;;9.40;5.57;;;7.10;99.90;;;;;;5044294;28;20039;-89
2023/03/17 04:39:35;;;;;;;10.30;4.72;;;7.10;99.90;;;;;;5045484;28;20025;-91
2023/03/17 04:42:01;;;;;;;9.95;5.25;;;7.00;99.90;;;;;;5053541;28;20029;-91
2023/03/17 04:44:27;;;;;;;8.68;5.40;;;7.10;99.90;;;;;;5046248;28;20120;-91
2023/03/17 04:46:52;;;;;;;11.10;5.93;;;7.00;99.90;;;;;;5052719;28;20098;-90
2023/03/17 04:49:18;;;;;;;9.88;5.75;;;7.00;99.90;;;;;;5045059;28;20893;-85
2023/03/17 04:51:43;;;;;;;12.30;6.65;;;7.10;99.90;;;;;;5047371;28;20492;-89
2023/03/17 04:54:10;;;;;;;9.85;5.32;;;7.10;99.90;;;;;;5054776;28;20028;-90
2023/03/17 04:56:35;;;;;;;11.32;5.32;;;7.20;99.90;;;;;;5054390;28;20605;-88
2023/03/17 04:59:01;;;;;;;10.63;5.07;;;7.20;99.90;;;;;;5052520;28;20420;-89
2023/03/17 05:01:27;;;;;;;12.65;5.30;;;7.20;99.90;;;;;;5055766;28;20069;-88
2023/03/17 05:03:52;;;;;;;16.67;6.25;;;7.20;99.90;;;;;;5050169;28;20389;-89
2023/03/17 05:06:18;;;;;;;13.68;5.88;;;7.20;99.90;;;;;;5059454;28;20385;-90
2023/03/17 05:08:44;;;;;;;10.73;5.35;;;7.10;99.90;;;;;;5057289;28;20017;-90
2023/03/17 05:11:11;;;;;;;7.13;4.55;;;7.00;99.90;;;;;;5055588;28;20412;-91
2023/03/17 05:13:37;;;;;;;12.27;5.50;;;6.90;99.90;;;;;;5058357;28;20054;-91
2023/03/17 05:16:04;;;;;;;6.40;4.18;;;6.80;99.90;;;;;;5054741;28;20324;-89
2023/03/17 05:18:30;;;;;;;6.70;4.47;;;6.80;99.90;;;;;;5050602;28;20382;-90
2023/03/17 05:20:56;;;;;;;7.57;4.80;;;6.70;99.90;;;;;;5059080;28;20031;-89
2023/03/17 05:23:22;;;;;;;8.65;5.40;;;6.60;99.90;;;;;;5058577;28;20311;-90
2023/03/17 05:25:48;;;;;;;9.07;5.30;;;6.60;99.90;;;;;;5053587;28;20029;-88
2023/03/17 05:28:15;;;;;;;7.78;4.88;;;6.70;99.90;;;;;;5059069;28;20026;-89
2023/03/17 05:30:42;;;;;;;10.98;4.63;;;6.70;99.90;;;;;;5056022;28;20029;-90
2023/03/17 05:33:07;;;;;;;8.07;4.55;;;6.60;99.90;;;;;;5052289;28;20072;-90
2023/03/17 05:35:33;;;;;;;9.40;5.38;;;6.60;99.90;;;;;;5057940;28;20318;-90
2023/03/17 05:37:59;;;;;;;9.27;4.70;;;6.50;99.90;;;;;;5057475;28;20220;-90
2023/03/17 05:40:25;;;;;;;10.45;4.70;;;6.40;99.90;;;;;;5055660;28;20108;-85
2023/03/17 05:42:51;;;;;;;11.73;5.00;;;6.40;99.90;;;;;;5051670;28;20105;-88
2023/03/17 05:45:17;;;;;;;7.30;4.43;;;6.20;99.90;;;;;;5053811;28;20070;-87
2023/03/17 05:47:43;;;;;;;7.80;4.90;;;6.10;99.90;;;;;;5050916;28;20048;-88
2023/03/17 05:50:11;;;;;;;7.65;4.68;;;6.10;99.90;;;;;;5081989;28;20158;-89
2023/03/17 05:52:37;;;;;;;9.07;4.75;;;6.10;99.90;;;;;;5048104;28;20336;-88
2023/03/17 05:55:03;;;;;;;6.05;4.55;;;6.00;99.90;;;;;;5052921;28;20025;-89
2023/03/17 05:57:29;;;;;;;7.47;5.00;;;6.10;99.90;;;;;;5052809;28;20036;-90
2023/03/17 05:59:55;;;;;;;8.52;4.00;;;6.00;99.90;;;;;;5055968;28;20028;-90
2023/03/17 06:02:20;;;;;;;8.20;4.63;;;5.90;99.90;;;;;;5053044;28;20496;-91
2023/03/17 06:04:46;;;;;;;6.50;4.45;;;5.80;99.90;;;;;;5050310;28;20032;-91
2023/03/17 06:07:12;;;;;;;10.70;5.88;;;5.80;99.90;;;;;;5056785;28;20037;-90
2023/03/17 06:09:38;;;;;;;10.60;6.65;;;5.70;99.90;;;;;;5044085;28;20029;-91
2023/03/17 06:12:05;;;;;;;10.30;5.80;;;5.70;99.90;;;;;;5052914;28;20029;-90
2023/03/17 06:14:31;;;;;;;8.85;4.97;;;5.70;99.90;;;;;;5052194;28;20044;-90
2023/03/17 06:16:57;;;;;;;7.15;4.55;;;5.80;99.90;;;;;;5051090;28;20025;-90
2023/03/17 06:19:22;;;;;;;15.77;8.18;;;5.80;99.90;;;;;;5054877;28;20025;-90
2023/03/17 06:21:48;;;;;;;14.07;8.57;;;5.80;99.90;;;;;;5053696;28;20461;-89
2023/03/17 06:24:14;;;;;;;10.55;5.40;;;5.80;99.90;;;;;;5055197;28;20029;-89
2023/03/17 06:26:41;;;;;;;8.52;5.55;;;5.70;99.90;;;;;;5052262;28;20048;-89
2023/03/17 06:29:08;;;;;;;11.65;4.93;;;5.70;99.90;;;;;;5052368;28;20535;-89
2023/03/17 06:31:34;;;;;;;10.00;5.35;;;5.80;99.90;;;;;;5050510;28;20443;-89
2023/03/17 06:34:00;;;;;;;10.40;4.68;;;5.80;99.90;;;;;;5047015;28;20086;-89
2023/03/17 06:36:26;;;;;;;9.63;5.10;;;5.80;99.90;;;;;;5047034;28;20025;-89
2023/03/17 06:38:52;;;;;;;12.57;6.93;;;5.90;99.90;;;;;;5055569;28;20027;-88
2023/03/17 06:41:18;;;;;;;16.55;9.13;;;5.90;99.90;;;;;;5055118;28;20025;-90
2023/03/17 06:43:44;;;;;;;13.73;6.55;;;5.90;99.90;;;;;;5053901;28;20085;-88
2023/03/17 06:46:09;;;;;;;11.32;5.80;;;5.90;99.90;;;;;;5050533;28;20041;-87
2023/03/17 06:48:35;;;;;;;8.00;5.00;;;6.00;99.90;;;;;;5044746;28;20025;-87
2023/03/17 06:51:01;;;;;;;15.43;5.70;;;6.00;99.90;;;;;;5048908;28;20115;-89
2023/03/17 06:53:27;;;;;;;8.18;4.60;;;6.20;99.90;;;;;;5044283;28;20493;-85
2023/03/17 06:55:52;;;;;;;8.38;4.63;;;6.20;99.90;;;;;;5044589;28;20455;-87
2023/03/17 06:58:19;;;;;;;6.70;4.30;;;6.30;99.90;;;;;;5051426;28;20404;-88
2023/03/17 07:00:47;;;;;;;6.97;4.47;;;6.50;99.90;;;;;;5044226;28;20466;-86
2023/03/17 07:03:14;;;;;;;7.10;4.20;;;6.70;99.90;;;;;;5049909;28;20026;-82
2023/03/17 07:05:40;;;;;;;7.53;3.92;;;7.00;99.90;;;;;;5047803;28;20556;-84
2023/03/17 07:08:07;;;;;;;9.55;4.35;;;7.20;99.90;;;;;;5051008;28;20055;-80
2023/03/17 07:10:34;;;;;;;10.55;4.43;;;7.40;99.90;;;;;;5052070;28;20035;-87
2023/03/17 07:13:01;;;;;;;9.05;4.90;;;7.60;99.90;;;;;;5060881;28;20079;-89
2023/03/17 07:15:27;;;;;;;8.52;5.75;;;7.70;99.90;;;;;;5052302;28;20021;-90
2023/03/17 07:17:53;;;;;;;10.13;5.05;;;7.70;99.90;;;;;;5056290;28;20025;-88
2023/03/17 07:20:20;;;;;;;12.18;6.10;;;7.80;99.90;;;;;;5047591;28;20079;-90
2023/03/17 07:22:46;;;;;;;10.18;5.70;;;7.80;99.90;;;;;;5052336;28;20047;-86
2023/03/17 07:25:12;;;;;;;13.57;4.82;;;7.90;99.90;;;;;;5051175;28;20029;-88
2023/03/17 07:27:37;;;;;;;5.32;3.53;;;7.90;99.90;;;;;;5056865;28;20499;-84
2023/03/17 07:30:04;;;;;;;7.18;3.72;;;8.00;99.90;;;;;;5049550;28;20027;-87
2023/03/17 07:32:31;;;;;;;9.60;4.80;;;8.20;99.90;;;;;;5057422;28;20064;-90
2023/03/17 07:34:57;;;;;;;6.22;3.95;;;8.40;99.90;;;;;;5054948;28;20029;-89
2023/03/17 07:37:23;;;;;;;12.32;5.15;;;8.40;99.90;;;;;;5046685;28;20037;-90
2023/03/17 07:39:50;;;;;;;6.30;4.10;;;8.50;99.90;;;;;;5046415;28;20023;-86
2023/03/17 07:42:16;;;;;;;6.68;4.00;;;8.50;99.90;;;;;;5044850;28;20024;-89
2023/03/17 07:44:42;;;;;;;5.63;3.22;;;8.60;99.90;;;;;;5050439;28;20047;-86
2023/03/17 07:47:10;;;;;;;7.07;3.75;;;8.60;99.90;;;;;;5043180;28;20052;-91
2023/03/17 07:49:36;;;;;;;6.65;2.95;;;8.70;99.90;;;;;;5045238;28;20025;-90
2023/03/17 07:52:02;;;;;;;4.65;3.03;;;8.80;99.90;;;;;;5043600;28;20078;-90
2023/03/17 07:54:28;;;;;;;6.15;3.50;;;8.90;99.90;;;;;;5050655;28;20378;-89
2023/03/17 07:56:54;;;;;;;3.15;2.42;;;8.90;99.90;;;;;;5047512;28;20052;-90
2023/03/17 07:59:20;;;;;;;6.95;2.97;;;9.00;99.90;;;;;;5045762;28;20025;-90
2023/03/17 08:01:46;;;;;;;4.65;3.08;;;9.10;99.90;;;;;;5047561;28;20020;-87
2023/03/17 08:04:13;;;;;;;5.90;2.42;;;9.20;99.90;;;;;;5048181;28;20150;-89
2023/03/17 08:06:40;;;;;;;5.93;2.80;;;9.30;99.90;;;;;;5051310;28;20033;-89
2023/03/17 08:09:07;;;;;;;9.57;3.05;;;9.40;99.90;;;;;;5054115;28;20027;-90
2023/03/17 08:11:34;;;;;;;4.20;2.67;;;9.50;99.90;;;;;;5055030;28;20031;-90
2023/03/17 08:14:01;;;;;;;4.93;2.88;;;9.70;99.90;;;;;;5060771;28;20025;-87
2023/03/17 08:16:27;;;;;;;4.35;2.38;;;9.80;99.90;;;;;;5053399;28;20024;-90
2023/03/17 08:18:53;;;;;;;4.18;2.20;;;9.90;99.90;;;;;;5058248;28;20112;-87
2023/03/17 08:21:21;;;;;;;3.67;2.45;;;10.00;99.90;;;;;;5055106;28;20096;-91
2023/03/17 08:23:47;;;;;;;7.35;3.92;;;10.00;99.90;;;;;;5040213;28;20111;-90
2023/03/17 08:26:13;;;;;;;8.00;3.33;;;10.10;98.70;;;;;;5046072;28;20113;-87
2023/03/17 08:28:39;;;;;;;5.47;3.33;;;10.10;99.90;;;;;;5051596;28;20060;-86
2023/03/17 08:31:19;;;;;;;5.07;2.63;;;10.30;99.70;;;;;;5058651;28;20471;-89
2023/03/17 08:33:47;;;;;;;4.40;2.17;;;10.40;99.90;;;;;;5057197;28;20104;-80
2023/03/17 08:36:15;;;;;;;3.65;2.40;;;10.50;98.50;;;;;;5062006;28;20033;-85
2023/03/17 08:38:41;;;;;;;4.65;2.50;;;10.60;97.30;;;;;;5041919;28;20605;-90
2023/03/17 08:41:11;;;;;;;3.95;2.25;;;10.70;96.60;;;;;;5053765;28;20104;-83
2023/03/17 08:43:37;;;;;;;2.58;2.03;;;10.90;96.10;;;;;;5055564;28;20028;-84
2023/03/17 08:46:15;;;;;;;5.05;1.83;;;11.10;93.00;;;;;;5047183;28;20457;-85
2023/03/17 08:48:41;;;;;;;5.20;2.08;;;11.30;90.30;;;;;;5064483;28;20020;-86
2023/03/17 08:51:07;;;;;;;2.13;1.52;;;11.50;91.20;;;;;;5058088;28;20434;-85
2023/03/17 08:53:34;;;;;;;3.78;1.60;;;11.50;90.40;;;;;;5050839;28;20033;-89
2023/03/17 08:56:00;;;;;;;1.67;1.50;;;11.50;90.20;;;;;;5053778;28;20092;-84
2023/03/17 08:58:26;;;;;;;3.22;1.88;;;11.50;88.40;;;;;;5064514;28;20033;-88
2023/03/17 09:00:52;;;;;;;3.47;1.40;;;11.50;84.10;;;;;;5051484;28;20059;-89
2023/03/17 09:03:20;;;;;;;3.72;1.50;;;11.50;86.10;;;;;;5054457;28;20082;-83
2023/03/17 09:05:47;;;;;;;3.80;1.75;;;11.60;83.70;;;;;;5060635;28;20028;-84
2023/03/17 09:08:13;;;;;;;3.35;1.50;;;11.70;84.90;;;;;;5054368;28;20064;-88
2023/03/17 09:10:38;;;;;;;3.50;1.42;;;11.90;84.30;;;;;;5064274;28;20052;-90
2023/03/17 09:13:07;;;;;;;2.33;1.98;;;11.90;90.70;;;;;;5058920;28;20134;-86
2023/03/17 09:15:33;;;;;;;1.95;1.27;;;12.00;89.30;;;;;;5051005;28;20487;-86
2023/03/17 09:18:02;;;;;;;1.77;1.30;;;12.20;82.70;;;;;;5061219;28;20100;-92
2023/03/17 09:20:28;;;;;;;2.40;1.20;;;12.20;85.40;;;;;;5050533;28;20034;-86
2023/03/17 09:22:55;;;;;;;3.42;1.50;;;12.40;79.10;;;;;;5055043;28;20017;-84
2023/03/17 09:25:20;;;;;;;3.25;1.50;;;12.50;78.50;;;;;;5055398;28;20024;-86
2023/03/17 09:27:46;;;;;;;2.90;1.25;;;12.70;71.80;;;;;;5048649;28;20086;-83
2023/03/17 09:30:12;;;;;;;1.30;1.20;;;12.90;64.90;;;;;;5054233;28;20020;-89
2023/03/17 09:32:41;;;;;;;5.75;1.40;;;12.90;68.30;;;;;;5042620;28;20027;-88
2023/03/17 09:35:08;;;;;;;1.55;1.40;;;12.90;67.60;;;;;;5049354;28;20377;-82
2023/03/17 09:37:34;;;;;;;6.65;2.50;;;13.00;65.50;;;;;;5062962;28;20089;-86
2023/03/17 09:40:00;;;;;;;3.08;1.33;;;13.00;63.60;;;;;;5054131;28;20024;-82
2023/03/17 09:42:47;;;;;;;2.88;1.50;;;12.90;61.60;;;;;;5049788;28;20436;-86
2023/03/17 09:45:16;;;;;;;3.00;1.25;;;12.90;61.30;;;;;;5049975;28;20036;-82
2023/03/17 09:47:53;;;;;;;8.75;1.50;;;13.00;63.80;;;;;;5053392;28;20055;-88
2023/03/17 09:50:27;;;;;;;4.13;1.63;;;12.90;63.10;;;;;;5049282;28;20131;-79
2023/03/17 09:52:55;;;;;;;3.75;1.48;;;12.90;62.50;;;;;;5058941;28;21079;-89
2023/03/17 09:55:42;;;;;;;3.72;1.90;;;13.00;64.60;;;;;;5053727;28;20090;-91
2023/03/17 09:58:10;;;;;;;3.95;1.00;;;12.90;67.10;;;;;;5050759;28;20025;-90
2023/03/17 10:00:36;;;;;;;4.15;1.38;;;13.00;62.10;;;;;;5049720;28;20033;-89
2023/03/17 10:03:02;;;;;;;2.78;1.00;;;13.10;62.60;;;;;;5051370;28;20032;-88
2023/03/17 10:05:33;;;;;;;5.03;1.65;;;13.20;61.20;;;;;;5049141;28;20021;-86
2023/03/17 10:08:24;;;;;;;2.03;1.30;;;13.30;61.90;;;;;;5052751;28;20465;-82
2023/03/17 10:11:15;;;;;;;3.15;1.50;;;13.40;59.20;;;;;;5048693;28;20037;-82
2023/03/17 10:14:03;;;;;;;2.22;0.95;;;13.50;58.20;;;;;;5047606;28;20711;-85
2023/03/17 10:16:36;;;;;;;5.80;1.25;;;13.60;54.00;;;;;;5048316;28;20037;-84
2023/03/17 10:19:25;;;;;;;6.80;1.48;;;13.50;55.70;;;;;;5057149;28;20044;-85
2023/03/17 10:22:04;;;;;;;3.13;1.40;;;13.60;55.10;;;;;;5047520;28;20476;-90
2023/03/17 10:24:32;;;;;;;5.47;1.05;;;13.60;54.10;;;;;;5052055;28;20101;-89
2023/03/17 10:27:03;;;;;;;2.13;1.15;;;13.70;54.30;;;;;;5052543;28;20095;-90
2023/03/17 10:29:32;;;;;;;2.38;1.10;;;13.70;53.80;;;;;;5050360;28;20033;-90
2023/03/17 10:31:58;;;;;;;2.15;0.88;;;13.80;54.90;;;;;;5052924;28;20033;-87
2023/03/17 10:34:35;;;;;;;2.83;1.30;;;13.90;55.20;;;;;;5050123;28;20029;-82
2023/03/17 10:37:04;;;;;;;2.47;1.27;;;14.00;53.30;;;;;;5045008;28;20037;-82
2023/03/17 10:39:30;;;;;;;5.10;1.60;;;14.10;51.60;;;;;;5055312;28;20031;-87
2023/03/17 10:42:23;;;;;;;1.67;1.35;;;14.30;51.60;;;;;;5049077;28;20111;-91
2023/03/17 10:45:06;;;;;;;2.25;1.40;;;14.30;51.60;;;;;;5050644;28;20032;-90
2023/03/17 10:47:36;;;;;;;1.75;1.13;;;14.20;51.40;;;;;;5042509;28;20047;-89
2023/03/17 10:50:21;;;;;;;1.60;1.20;;;14.20;52.20;;;;;;5046074;28;20024;-86
2023/03/17 10:52:53;;;;;;;5.82;1.45;;;14.20;50.40;;;;;;5045190;28;20025;-87
2023/03/17 10:55:21;;;;;;;1.85;1.33;;;14.30;52.10;;;;;;5046225;28;20075;-85
2023/03/17 10:58:06;;;;;;;2.47;1.23;;;14.40;49.10;;;;;;5053747;28;20048;-81
2023/03/17 11:00:35;;;;;;;2.97;1.48;;;14.50;48.30;;;;;;5049058;28;20106;-83
2023/03/17 11:03:12;;;;;;;2.78;1.42;;;14.50;49.80;;;;;;5042928;28;20036;-90
2023/03/17 11:05:38;;;;;;;3.75;1.30;;;14.50;53.30;;;;;;5052451;28;20028;-89
2023/03/17 11:08:14;;;;;;;2.85;1.13;;;14.60;50.40;;;;;;5047943;28;20037;-85
2023/03/17 11:10:40;;;;;;;0.98;0.93;;;14.70;51.50;;;;;;5045334;28;20021;-86
2023/03/17 11:13:07;;;;;;;1.35;1.10;;;14.70;51.90;;;;;;5048839;28;20021;-82
2023/03/17 11:15:38;;;;;;;4.47;1.20;;;14.80;51.20;;;;;;5048561;28;20028;-90
2023/03/17 11:18:14;;;;;;;4.30;1.33;;;14.90;51.20;;;;;;5047231;28;20477;-87
2023/03/17 11:20:45;;;;;;;5.70;0.98;;;14.90;51.00;;;;;;5048968;28;20048;-85
2023/03/17 11:23:30;;;;;;;2.17;1.30;;;15.00;51.20;;;;;;5048159;28;20033;-90
2023/03/17 11:26:23;;;;;;;5.05;1.40;;;15.00;52.80;;;;;;5049090;28;20026;-88
2023/03/17 11:29:21;;;;;;;3.17;1.30;;;15.10;52.00;;;;;;5051039;28;20035;-84
2023/03/17 11:32:02;;;;;;;2.33;1.50;;;15.20;49.90;;;;;;5009602;28;20033;-86
2023/03/17 11:34:38;;;;;;;3.17;1.30;;;15.20;49.50;;;;;;5053751;28;20115;-87
2023/03/17 11:37:37;;;;;;;7.75;1.42;;;15.20;49.00;;;;;;5050975;28;20021;-86
2023/03/17 11:40:06;;;;;;;3.17;1.33;;;15.30;49.40;;;;;;5047319;28;20020;-91
2023/03/17 11:43:20;;;;;;;1.70;1.30;;;15.30;50.90;;;;;;5046532;28;20033;-89
2023/03/17 11:46:04;;;;;;;1.30;1.20;;;15.40;47.70;;;;;;5049438;28;20083;-88
2023/03/17 11:49:04;;;;;;;2.38;1.10;;;15.50;47.60;;;;;;5050204;28;20033;-89
2023/03/17 11:51:51;;;;;;;1.63;0.93;;;15.50;48.10;;;;;;5044412;28;20064;-88
2023/03/17 11:54:51;;;;;;;1.95;1.08;;;15.50;48.10;;;;;;5038540;28;20029;-90
2023/03/17 11:57:21;;;;;;;2.72;1.35;;;15.50;46.20;;;;;;5056789;28;20022;-90
2023/03/17 11:59:55;;;;;;;4.10;1.38;;;15.50;49.00;;;;;;5050518;28;20043;-86
2023/03/17 12:02:29;;;;;;;4.47;1.08;;;15.50;48.70;;;;;;5048242;28;20048;-86
2023/03/17 12:05:37;;;;;;;3.72;1.30;;;15.60;47.80;;;;;;5049500;28;20461;-91
2023/03/17 12:08:30;;;;;;;2.85;1.50;;;15.60;46.90;;;;;;5024143;28;20044;-85
2023/03/17 12:10:59;;;;;;;5.72;1.63;;;15.60;44.80;;;;;;5055758;28;20035;-89
2023/03/17 12:13:41;;;;;;;1.23;1.10;;;15.50;45.50;;;;;;5059508;28;20017;-89
2023/03/17 12:16:14;;;;;;;2.55;1.50;;;15.50;45.90;;;;;;5061941;28;20029;-84
2023/03/17 12:18:50;;;;;;;2.10;1.15;;;15.50;46.30;;;;;;5056718;28;20111;-89
2023/03/17 12:21:29;;;;;;;2.40;1.63;;;15.50;46.40;;;;;;5053368;28;20029;-92
2023/03/17 12:24:24;;;;;;;1.95;0.90;;;15.50;46.70;;;;;;5057518;28;20060;-84
2023/03/17 12:26:59;;;;;;;1.35;1.20;;;15.50;47.80;;;;;;5048172;28;20493;-84
2023/03/17 12:29:54;;;;;;;2.15;1.52;;;15.40;46.90;;;;;;5054496;28;20486;-91
2023/03/17 12:32:23;;;;;;;2.35;1.55;;;15.40;46.90;;;;;;5057547;28;20119;-89
2023/03/17 12:34:55;;;;;;;6.22;3.17;;;15.30;47.50;;;;;;5052732;28;20545;-88
2023/03/17 12:37:23;;;;;;;6.68;3.30;;;15.30;48.20;;;;;;5053888;28;20024;-82
2023/03/17 12:40:13;;;;;;;5.53;3.67;;;15.30;48.10;;;;;;5049690;28;20060;-84
2023/03/17 12:42:53;;;;;;;2.97;2.25;;;15.40;47.60;;;;;;5053073;28;20019;-87
2023/03/17 12:45:22;;;;;;;8.48;4.22;;;15.40;48.60;;;;;;5053262;28;20048;-89
2023/03/17 12:48:29;;;;;;;2.67;1.52;;;15.40;50.80;;;;;;5047565;28;20048;-87
2023/03/17 12:51:11;;;;;;;3.13;1.90;;;15.20;50.50;;;;;;5052117;28;20029;-90
2023/03/17 12:53:39;;;;;;;3.90;2.25;;;15.20;51.70;;;;;;5052212;28;20078;-91
2023/03/17 12:56:15;;;;;;;5.63;2.90;;;15.10;50.90;;;;;;5051598;28;20116;-92
2023/03/17 12:59:05;;;;;;;3.42;2.72;;;15.10;51.10;;;;;;5055119;28;20105;-88
2023/03/17 13:01:37;;;;;;;2.40;1.50;;;15.00;52.60;;;;;;5050904;28;20039;-89
2023/03/17 13:04:12;;;;;;;5.35;2.22;;;14.90;51.10;;;;;;5054878;28;20155;-91